Time;durP1;ratioP1;P1;durP2;ratioP2;P2;SDS_P1;SDS_P2;PMS_P1;PMS_P2;Temp;Humidity;BMP_temperature;BMP_pressure;BME280_temperature;BME280_humidity;BME280_pressure;Samples;Min_cycle;Max_cycle;Signal;HPM_P1;HPM_P2
2022/10/15 00:01:08;;;;;;;47.13;30.83;;;;;;;;;;5080161;28;20436;-81
2022/10/15 00:03:38;;;;;;;48.67;31.25;;;;;;;;;;5080435;27;20415;-81
2022/10/15 00:06:06;;;;;;;47.05;30.92;;;;;;;;;;5082976;28;20440;-81
2022/10/15 00:08:32;;;;;;;48.22;31.92;;;;;;;;;;5081365;28;20951;-80
2022/10/15 00:11:03;;;;;;;46.78;30.00;;;;;;;;;;5079603;28;20439;-81
2022/10/15 00:13:31;;;;;;;51.00;31.92;;;;;;;;;;5078631;27;20426;-81
2022/10/15 00:15:58;;;;;;;47.33;31.48;;;;;;;;;;5080518;28;20429;-80
2022/10/15 00:18:24;;;;;;;51.47;32.63;;;;;;;;;;5077406;28;20414;-80
2022/10/15 00:20:51;;;;;;;47.80;31.10;;;;;;;;;;5079389;28;20438;-81
2022/10/15 00:23:17;;;;;;;45.38;29.65;;;;;;;;;;5077586;28;20414;-80
2022/10/15 00:25:43;;;;;;;48.72;30.92;;;;;;;;;;5063655;28;20431;-80
2022/10/15 00:28:11;;;;;;;51.43;32.73;;;;;;;;;;5081441;28;20416;-80
2022/10/15 00:30:38;;;;;;;49.27;31.90;;;;;;;;;;5063002;28;20425;-80
2022/10/15 00:33:04;;;;;;;51.80;32.97;;;;;;;;;;5083319;28;20445;-81
2022/10/15 00:35:30;;;;;;;51.13;31.40;;;;;;;;;;5079104;28;20430;-82
2022/10/15 00:37:57;;;;;;;52.58;32.08;;;;;;;;;;5078544;27;20427;-81
2022/10/15 00:40:23;;;;;;;53.13;32.08;;;;;;;;;;5079071;28;20434;-80
2022/10/15 00:42:49;;;;;;;60.25;34.20;;;;;;;;;;5079528;28;20413;-80
2022/10/15 00:45:17;;;;;;;49.38;31.83;;;;;;;;;;5081346;28;20424;-80
2022/10/15 00:47:47;;;;;;;57.30;34.60;;;;;;;;;;5077837;28;20427;-81
2022/10/15 00:50:15;;;;;;;59.20;35.83;;;;;;;;;;5077307;28;20819;-81
2022/10/15 00:52:44;;;;;;;60.58;35.17;;;;;;;;;;5077014;28;20413;-81
2022/10/15 00:55:12;;;;;;;54.72;33.97;;;;;;;;;;5074911;28;20419;-81
2022/10/15 00:57:40;;;;;;;51.23;32.13;;;;;;;;;;5060033;28;20417;-81
2022/10/15 01:00:09;;;;;;;53.50;33.67;;;;;;;;;;5078392;28;20803;-81
2022/10/15 01:02:36;;;;;;;55.75;33.55;;;;;;;;;;5077171;28;20844;-81
2022/10/15 01:05:04;;;;;;;52.72;34.13;;;;;;;;;;5079596;28;20938;-81
2022/10/15 01:07:31;;;;;;;53.60;33.28;;;;;;;;;;5076313;27;20450;-81
2022/10/15 01:09:57;;;;;;;52.22;32.58;;;;;;;;;;5083416;28;20793;-81
2022/10/15 01:12:29;;;;;;;50.70;31.75;;;;;;;;;;5078114;27;20419;-81
2022/10/15 01:15:00;;;;;;;56.17;32.97;;;;;;;;;;5063273;28;20446;-81
2022/10/15 01:17:28;;;;;;;52.13;32.00;;;;;;;;;;5079996;27;20437;-81
2022/10/15 01:20:09;;;;;;;56.05;33.78;;;;;;;;;;5061170;28;20477;-81
2022/10/15 01:22:43;;;;;;;60.95;35.53;;;;;;;;;;5079990;28;20407;-81
2022/10/15 01:25:15;;;;;;;65.30;35.58;;;;;;;;;;5084078;28;20430;-81
2022/10/15 01:27:43;;;;;;;61.97;35.83;;;;;;;;;;5081629;28;20416;-81
2022/10/15 01:30:24;;;;;;;58.43;34.57;;;;;;;;;;5085916;28;20417;-81
2022/10/15 01:32:57;;;;;;;66.35;35.65;;;;;;;;;;5081439;28;20414;-81
2022/10/15 01:35:30;;;;;;;72.65;40.15;;;;;;;;;;5081799;28;20432;-81
2022/10/15 01:38:00;;;;;;;72.00;39.40;;;;;;;;;;5083102;28;20417;-83
2022/10/15 01:40:30;;;;;;;68.72;39.85;;;;;;;;;;5083549;28;20490;-80
2022/10/15 01:42:58;;;;;;;70.88;39.97;;;;;;;;;;5078499;28;20932;-81
2022/10/15 01:45:27;;;;;;;72.70;40.10;;;;;;;;;;5082701;28;20454;-82
2022/10/15 01:47:56;;;;;;;73.50;40.58;;;;;;;;;;5081783;27;20487;-82
2022/10/15 01:50:24;;;;;;;77.65;40.45;;;;;;;;;;5080581;28;20433;-82
2022/10/15 01:52:51;;;;;;;83.68;43.33;;;;;;;;;;5083002;28;20423;-81
2022/10/15 01:55:18;;;;;;;75.30;41.33;;;;;;;;;;5083344;28;20429;-80
2022/10/15 01:57:45;;;;;;;74.60;40.97;;;;;;;;;;5084377;28;20486;-81
2022/10/15 02:00:12;;;;;;;82.95;42.17;;;;;;;;;;5084415;28;20449;-80
2022/10/15 02:02:38;;;;;;;80.72;43.05;;;;;;;;;;5062712;28;20433;-81
2022/10/15 02:05:09;;;;;;;78.68;41.50;;;;;;;;;;5083834;28;20436;-80
2022/10/15 02:07:40;;;;;;;84.30;44.10;;;;;;;;;;5083798;27;20422;-80
2022/10/15 02:10:10;;;;;;;77.57;43.60;;;;;;;;;;5083834;28;20421;-80
2022/10/15 02:12:42;;;;;;;83.20;44.10;;;;;;;;;;5078776;28;20419;-80
2022/10/15 02:15:10;;;;;;;82.80;41.97;;;;;;;;;;5078274;28;20423;-81
2022/10/15 02:17:39;;;;;;;87.45;44.03;;;;;;;;;;5080936;27;20442;-81
2022/10/15 02:20:11;;;;;;;93.07;45.40;;;;;;;;;;5081981;28;20491;-81
2022/10/15 02:22:40;;;;;;;99.30;45.70;;;;;;;;;;5082031;28;20422;-81
2022/10/15 02:25:09;;;;;;;98.00;46.47;;;;;;;;;;5084847;28;20463;-80
2022/10/15 02:27:36;;;;;;;90.85;45.97;;;;;;;;;;5079108;28;20473;-80
2022/10/15 02:30:03;;;;;;;91.93;45.95;;;;;;;;;;5084815;28;20434;-82
2022/10/15 02:32:31;;;;;;;85.20;43.87;;;;;;;;;;5082760;27;20498;-82
2022/10/15 02:34:59;;;;;;;92.00;43.30;;;;;;;;;;5092981;28;20442;-80
2022/10/15 02:37:28;;;;;;;98.22;46.40;;;;;;;;;;5081765;28;20412;-80
2022/10/15 02:39:54;;;;;;;104.35;48.53;;;;;;;;;;5081777;28;20431;-82
2022/10/15 02:42:20;;;;;;;97.65;45.22;;;;;;;;;;5081863;28;20402;-80
2022/10/15 02:44:47;;;;;;;107.30;48.53;;;;;;;;;;5062868;28;20432;-80
2022/10/15 02:47:14;;;;;;;103.55;47.10;;;;;;;;;;5078051;28;20477;-80
2022/10/15 02:49:40;;;;;;;106.13;47.05;;;;;;;;;;5081731;28;20436;-80
2022/10/15 02:52:06;;;;;;;105.30;47.10;;;;;;;;;;5082825;28;23171;-79
2022/10/15 02:54:34;;;;;;;100.80;46.90;;;;;;;;;;5078680;28;20429;-80
2022/10/15 02:57:00;;;;;;;105.38;48.08;;;;;;;;;;5081132;28;20454;-80
2022/10/15 02:59:27;;;;;;;107.03;46.90;;;;;;;;;;5082070;28;20429;-81
2022/10/15 03:01:55;;;;;;;103.83;47.77;;;;;;;;;;5081789;27;20408;-81
2022/10/15 03:04:21;;;;;;;105.05;45.63;;;;;;;;;;5080357;28;20436;-81
2022/10/15 03:06:48;;;;;;;110.15;49.50;;;;;;;;;;5083490;28;20432;-81
2022/10/15 03:09:14;;;;;;;105.90;48.43;;;;;;;;;;5083750;28;20466;-81
2022/10/15 03:11:42;;;;;;;111.20;48.83;;;;;;;;;;5082587;28;20516;-81
2022/10/15 03:14:09;;;;;;;117.63;49.45;;;;;;;;;;5080422;28;20424;-81
2022/10/15 03:16:36;;;;;;;106.85;47.03;;;;;;;;;;5086084;28;20414;-81
2022/10/15 03:19:03;;;;;;;111.63;49.03;;;;;;;;;;5081153;28;20886;-81
2022/10/15 03:21:30;;;;;;;106.03;47.63;;;;;;;;;;5061434;28;20422;-81
2022/10/15 03:23:56;;;;;;;102.45;48.78;;;;;;;;;;5064550;28;20468;-81
2022/10/15 03:26:22;;;;;;;112.95;46.95;;;;;;;;;;5082195;28;20422;-81
2022/10/15 03:28:50;;;;;;;102.75;46.40;;;;;;;;;;5082997;27;20418;-81
2022/10/15 03:31:16;;;;;;;105.07;47.72;;;;;;;;;;5082431;28;20431;-80
2022/10/15 03:33:43;;;;;;;104.68;48.40;;;;;;;;;;5062463;28;20510;-81
2022/10/15 03:36:09;;;;;;;97.80;45.55;;;;;;;;;;5079907;28;20426;-81
2022/10/15 03:38:36;;;;;;;97.30;48.10;;;;;;;;;;5080558;28;20919;-81
2022/10/15 03:41:02;;;;;;;97.07;44.72;;;;;;;;;;5082659;28;20456;-81
2022/10/15 03:43:29;;;;;;;94.90;45.63;;;;;;;;;;5081494;28;20418;-81
2022/10/15 03:46:00;;;;;;;99.25;45.70;;;;;;;;;;5079351;28;20460;-81
2022/10/15 03:48:28;;;;;;;93.13;45.15;;;;;;;;;;5079376;28;20419;-81
2022/10/15 03:50:55;;;;;;;95.93;46.58;;;;;;;;;;5079899;28;20424;-81
2022/10/15 03:53:22;;;;;;;98.25;46.88;;;;;;;;;;5081985;28;20423;-80
2022/10/15 03:55:49;;;;;;;93.88;46.42;;;;;;;;;;5080587;28;20414;-81
2022/10/15 03:58:15;;;;;;;96.53;46.40;;;;;;;;;;5077707;27;20427;-81
2022/10/15 04:00:42;;;;;;;93.85;45.58;;;;;;;;;;5064011;28;20847;-81
2022/10/15 04:03:10;;;;;;;91.90;44.47;;;;;;;;;;5076717;27;20577;-81
2022/10/15 04:05:36;;;;;;;96.75;46.55;;;;;;;;;;5082345;28;20411;-81
2022/10/15 04:08:02;;;;;;;95.93;47.15;;;;;;;;;;5063727;28;20430;-81
2022/10/15 04:10:29;;;;;;;95.10;46.85;;;;;;;;;;5079703;28;20434;-81
2022/10/15 04:12:55;;;;;;;91.05;46.08;;;;;;;;;;5078835;27;20427;-81
2022/10/15 04:15:22;;;;;;;94.78;45.40;;;;;;;;;;5077782;28;20432;-80
2022/10/15 04:17:48;;;;;;;94.40;45.05;;;;;;;;;;5078762;27;20425;-81
2022/10/15 04:20:17;;;;;;;86.70;44.13;;;;;;;;;;5081806;28;20435;-80
2022/10/15 04:22:45;;;;;;;89.82;44.08;;;;;;;;;;5078001;28;20416;-81
2022/10/15 04:25:11;;;;;;;92.63;44.03;;;;;;;;;;5061257;28;20413;-81
2022/10/15 04:27:38;;;;;;;95.18;46.45;;;;;;;;;;5075396;28;20422;-80
2022/10/15 04:30:05;;;;;;;97.55;47.92;;;;;;;;;;5079246;28;20942;-80
2022/10/15 04:32:31;;;;;;;95.27;44.53;;;;;;;;;;5079295;27;20443;-81
2022/10/15 04:34:58;;;;;;;98.35;45.75;;;;;;;;;;5061777;28;20424;-80
2022/10/15 04:37:26;;;;;;;93.15;46.63;;;;;;;;;;5077257;28;20781;-81
2022/10/15 04:39:52;;;;;;;95.93;47.17;;;;;;;;;;5079838;28;20426;-80
2022/10/15 04:42:19;;;;;;;97.40;46.35;;;;;;;;;;5075662;28;20418;-80
2022/10/15 04:44:45;;;;;;;101.00;46.17;;;;;;;;;;5082077;28;20414;-81
2022/10/15 04:47:13;;;;;;;96.47;45.38;;;;;;;;;;5081687;28;20928;-81
2022/10/15 04:49:39;;;;;;;96.30;43.88;;;;;;;;;;5080627;28;21045;-81
2022/10/15 04:52:06;;;;;;;94.00;45.33;;;;;;;;;;5079418;27;20425;-81
2022/10/15 04:54:33;;;;;;;100.90;47.38;;;;;;;;;;5061223;28;20930;-81
2022/10/15 04:57:00;;;;;;;93.77;44.03;;;;;;;;;;5079023;28;20425;-81
2022/10/15 04:59:26;;;;;;;94.22;44.78;;;;;;;;;;5082028;28;20457;-81
2022/10/15 05:01:53;;;;;;;90.20;43.07;;;;;;;;;;5083842;28;20550;-80
2022/10/15 05:04:19;;;;;;;90.88;43.00;;;;;;;;;;5083114;28;20428;-82
2022/10/15 05:06:45;;;;;;;104.10;45.80;;;;;;;;;;5065828;28;20430;-80
2022/10/15 05:09:12;;;;;;;101.85;44.90;;;;;;;;;;5080124;28;20416;-81
2022/10/15 05:11:41;;;;;;;97.20;45.95;;;;;;;;;;5085314;28;20418;-80
2022/10/15 05:14:07;;;;;;;95.32;44.10;;;;;;;;;;5081272;28;20441;-80
2022/10/15 05:16:33;;;;;;;89.57;42.85;;;;;;;;;;5080861;28;20937;-80
2022/10/15 05:19:00;;;;;;;92.75;42.60;;;;;;;;;;5065012;28;20466;-80
2022/10/15 05:21:27;;;;;;;91.85;41.53;;;;;;;;;;5082417;28;20434;-80
2022/10/15 05:23:53;;;;;;;90.55;43.17;;;;;;;;;;5084256;28;20940;-80
2022/10/15 05:26:21;;;;;;;99.75;43.47;;;;;;;;;;5086245;28;20957;-81
2022/10/15 05:28:49;;;;;;;95.43;43.35;;;;;;;;;;5084055;27;20425;-81
2022/10/15 05:31:17;;;;;;;92.05;43.38;;;;;;;;;;5065707;28;20424;-80
2022/10/15 05:33:43;;;;;;;93.97;44.53;;;;;;;;;;5083956;27;20417;-80
2022/10/15 05:36:11;;;;;;;90.95;42.80;;;;;;;;;;5082270;28;20487;-80
2022/10/15 05:38:37;;;;;;;94.85;43.13;;;;;;;;;;5081276;27;20946;-80
2022/10/15 05:41:04;;;;;;;91.75;42.33;;;;;;;;;;5085938;28;20428;-82
2022/10/15 05:43:30;;;;;;;92.65;42.50;;;;;;;;;;5085950;27;20424;-81
2022/10/15 05:45:58;;;;;;;99.40;44.38;;;;;;;;;;5083159;28;20428;-83
2022/10/15 05:48:24;;;;;;;93.70;43.50;;;;;;;;;;5082266;27;20431;-80
2022/10/15 05:50:50;;;;;;;101.23;42.80;;;;;;;;;;5082148;28;20428;-80
2022/10/15 05:53:17;;;;;;;92.57;42.15;;;;;;;;;;5085154;27;20411;-82
2022/10/15 05:55:43;;;;;;;93.78;44.08;;;;;;;;;;5063366;28;20417;-80
2022/10/15 05:58:09;;;;;;;95.30;42.97;;;;;;;;;;5082552;27;20420;-81
2022/10/15 06:00:38;;;;;;;92.70;42.15;;;;;;;;;;5080123;28;20906;-80
2022/10/15 06:03:06;;;;;;;90.38;41.03;;;;;;;;;;5079765;27;20848;-81
2022/10/15 06:05:32;;;;;;;97.35;43.45;;;;;;;;;;5081031;28;20447;-80
2022/10/15 06:07:58;;;;;;;93.70;42.53;;;;;;;;;;5084753;28;20482;-83
2022/10/15 06:10:27;;;;;;;95.93;43.00;;;;;;;;;;5063666;28;20819;-81
2022/10/15 06:12:53;;;;;;;98.95;43.53;;;;;;;;;;5078027;28;20416;-82
2022/10/15 06:15:20;;;;;;;94.88;43.00;;;;;;;;;;5081075;28;20434;-81
2022/10/15 06:17:46;;;;;;;94.68;43.10;;;;;;;;;;5077288;27;20458;-83
2022/10/15 06:20:14;;;;;;;98.65;43.40;;;;;;;;;;5060647;28;20427;-80
2022/10/15 06:22:40;;;;;;;103.80;46.60;;;;;;;;;;5080921;28;20430;-83
2022/10/15 06:25:07;;;;;;;94.43;44.10;;;;;;;;;;5082112;28;20844;-81
2022/10/15 06:27:34;;;;;;;94.33;43.53;;;;;;;;;;5080906;28;20486;-80
2022/10/15 06:30:02;;;;;;;96.25;44.15;;;;;;;;;;5082801;28;20428;-81
2022/10/15 06:32:28;;;;;;;93.53;43.83;;;;;;;;;;5080011;27;20419;-81
2022/10/15 06:34:54;;;;;;;99.07;43.83;;;;;;;;;;5079270;28;20431;-81
2022/10/15 06:37:22;;;;;;;96.75;44.05;;;;;;;;;;5063451;28;20442;-82
2022/10/15 06:39:49;;;;;;;103.87;44.60;;;;;;;;;;5081724;28;20430;-82
2022/10/15 06:42:15;;;;;;;91.35;42.92;;;;;;;;;;5078220;28;20420;-83
2022/10/15 06:44:43;;;;;;;87.18;42.05;;;;;;;;;;5083707;28;20907;-81
2022/10/15 06:47:09;;;;;;;92.40;43.47;;;;;;;;;;5062300;28;20402;-80
2022/10/15 06:49:36;;;;;;;91.63;42.03;;;;;;;;;;5077390;28;20431;-80
2022/10/15 06:52:02;;;;;;;92.93;45.63;;;;;;;;;;5079321;28;20417;-80
2022/10/15 06:54:30;;;;;;;91.90;44.03;;;;;;;;;;5032159;27;1081968;-80
2022/10/15 06:56:57;;;;;;;93.85;43.17;;;;;;;;;;5067325;28;20832;-80
2022/10/15 06:59:23;;;;;;;98.60;44.33;;;;;;;;;;5077404;27;20800;-81
2022/10/15 07:01:49;;;;;;;100.60;44.00;;;;;;;;;;5084990;28;20430;-81
2022/10/15 07:04:15;;;;;;;99.18;44.15;;;;;;;;;;5084706;27;20420;-80
2022/10/15 07:06:42;;;;;;;96.40;43.53;;;;;;;;;;5083296;28;20429;-80
2022/10/15 07:09:08;;;;;;;101.65;46.10;;;;;;;;;;5081530;27;20416;-80
2022/10/15 07:11:36;;;;;;;98.17;46.30;;;;;;;;;;5084354;28;20404;-80
2022/10/15 07:14:03;;;;;;;97.30;44.25;;;;;;;;;;5084771;27;20418;-80
2022/10/15 07:16:29;;;;;;;96.55;45.40;;;;;;;;;;5081958;28;20413;-80
2022/10/15 07:18:55;;;;;;;102.10;45.17;;;;;;;;;;5082345;28;20436;-80
2022/10/15 07:21:23;;;;;;;99.43;44.10;;;;;;;;;;5080182;28;20428;-80
2022/10/15 07:23:49;;;;;;;101.93;44.40;;;;;;;;;;5081293;27;20415;-80
2022/10/15 07:26:16;;;;;;;100.70;44.85;;;;;;;;;;5081781;28;20421;-80
2022/10/15 07:28:44;;;;;;;101.13;46.17;;;;;;;;;;5081708;28;20425;-80
2022/10/15 07:31:10;;;;;;;94.10;44.97;;;;;;;;;;5085609;28;20448;-80
2022/10/15 07:33:37;;;;;;;102.32;45.33;;;;;;;;;;5079062;27;20482;-80
2022/10/15 07:36:05;;;;;;;100.25;44.78;;;;;;;;;;5082712;28;21175;-80
2022/10/15 07:38:31;;;;;;;102.57;44.72;;;;;;;;;;5081586;27;20467;-82
2022/10/15 07:40:58;;;;;;;100.65;46.00;;;;;;;;;;5084383;28;20421;-81
2022/10/15 07:43:24;;;;;;;105.82;45.90;;;;;;;;;;5083668;27;20411;-80
2022/10/15 07:45:52;;;;;;;99.63;44.72;;;;;;;;;;5082325;28;20417;-80
2022/10/15 07:48:18;;;;;;;102.05;45.00;;;;;;;;;;5083395;27;20430;-80
2022/10/15 07:50:45;;;;;;;106.70;45.80;;;;;;;;;;5081155;28;20483;-80
2022/10/15 07:53:11;;;;;;;98.53;43.55;;;;;;;;;;5079412;27;20415;-80
2022/10/15 07:55:38;;;;;;;85.05;42.80;;;;;;;;;;5079472;28;20427;-81
2022/10/15 07:58:07;;;;;;;82.68;41.60;;;;;;;;;;5080427;28;20413;-81
2022/10/15 08:00:33;;;;;;;90.00;43.97;;;;;;;;;;5079445;28;20929;-80
2022/10/15 08:03:02;;;;;;;84.60;41.35;;;;;;;;;;5081071;28;20426;-80
2022/10/15 08:05:28;;;;;;;79.22;39.42;;;;;;;;;;5061522;28;20821;-80
2022/10/15 08:07:55;;;;;;;72.87;37.23;;;;;;;;;;5061754;28;20434;-79
2022/10/15 08:10:21;;;;;;;73.80;38.08;;;;;;;;;;5077394;28;20762;-79
2022/10/15 08:12:47;;;;;;;79.00;39.38;;;;;;;;;;5080106;28;20421;-81
2022/10/15 08:15:14;;;;;;;66.07;34.85;;;;;;;;;;5081074;27;20433;-81
2022/10/15 08:17:40;;;;;;;67.88;36.05;;;;;;;;;;5079347;28;20412;-82
2022/10/15 08:20:09;;;;;;;68.72;38.33;;;;;;;;;;5073082;28;20438;-79
2022/10/15 08:22:36;;;;;;;56.60;33.67;;;;;;;;;;5077407;28;20417;-79
2022/10/15 08:25:03;;;;;;;66.63;35.40;;;;;;;;;;5076746;28;20437;-79
2022/10/15 08:27:29;;;;;;;53.90;31.73;;;;;;;;;;5076025;28;20431;-80
2022/10/15 08:29:57;;;;;;;48.58;29.90;;;;;;;;;;5064362;28;20435;-84
2022/10/15 08:32:23;;;;;;;49.35;29.20;;;;;;;;;;5078189;28;20419;-79
2022/10/15 08:34:50;;;;;;;50.22;27.80;;;;;;;;;;5079967;27;20426;-79
2022/10/15 08:37:17;;;;;;;47.08;28.67;;;;;;;;;;5080728;28;20910;-82
2022/10/15 08:39:44;;;;;;;49.00;27.27;;;;;;;;;;5076804;28;20427;-81
2022/10/15 08:42:14;;;;;;;44.92;27.52;;;;;;;;;;5083184;28;20421;-81
2022/10/15 08:44:42;;;;;;;45.67;26.45;;;;;;;;;;5082849;28;20426;-83
2022/10/15 08:47:12;;;;;;;45.33;26.02;;;;;;;;;;5081150;28;20430;-83
2022/10/15 08:49:43;;;;;;;44.40;25.85;;;;;;;;;;5081033;27;20433;-83
2022/10/15 08:52:15;;;;;;;45.70;27.20;;;;;;;;;;5083950;28;20831;-81
2022/10/15 08:54:44;;;;;;;45.65;25.88;;;;;;;;;;5061320;28;20423;-84
2022/10/15 08:57:22;;;;;;;43.97;26.08;;;;;;;;;;5081650;28;20456;-84
2022/10/15 08:59:52;;;;;;;50.10;26.63;;;;;;;;;;5063780;28;20909;-81
2022/10/15 09:02:21;;;;;;;44.15;27.02;;;;;;;;;;5072921;28;20427;-83
2022/10/15 09:04:51;;;;;;;47.72;28.73;;;;;;;;;;5062396;28;20948;-81
2022/10/15 09:07:20;;;;;;;51.08;28.83;;;;;;;;;;5083122;28;20423;-82
2022/10/15 09:09:49;;;;;;;48.77;28.00;;;;;;;;;;5079785;28;20429;-81
2022/10/15 09:12:23;;;;;;;48.10;28.43;;;;;;;;;;5084376;28;20415;-80
2022/10/15 09:14:49;;;;;;;52.10;28.13;;;;;;;;;;5080398;27;20421;-83
2022/10/15 09:17:19;;;;;;;49.10;28.77;;;;;;;;;;5077503;28;20439;-80
2022/10/15 09:19:49;;;;;;;48.47;27.70;;;;;;;;;;5078127;28;20801;-81
2022/10/15 09:22:17;;;;;;;44.10;26.83;;;;;;;;;;5077577;28;20423;-81
2022/10/15 09:24:44;;;;;;;49.97;28.92;;;;;;;;;;5080067;28;20422;-81
2022/10/15 09:27:19;;;;;;;51.38;27.75;;;;;;;;;;5079720;28;20431;-81
2022/10/15 09:29:48;;;;;;;47.42;28.17;;;;;;;;;;5080419;28;20440;-80
2022/10/15 09:32:19;;;;;;;45.30;27.80;;;;;;;;;;5063706;28;20999;-80
2022/10/15 09:34:50;;;;;;;46.08;27.60;;;;;;;;;;5077066;28;21461;-80
2022/10/15 09:37:21;;;;;;;48.45;29.38;;;;;;;;;;5080857;28;20426;-80
2022/10/15 09:39:54;;;;;;;50.35;29.45;;;;;;;;;;5080331;28;20427;-82
2022/10/15 09:42:26;;;;;;;52.03;31.40;;;;;;;;;;5062225;28;20433;-83
2022/10/15 09:44:53;;;;;;;49.92;30.08;;;;;;;;;;5085016;28;20422;-82
2022/10/15 09:47:23;;;;;;;49.00;29.80;;;;;;;;;;5080971;28;20929;-82
2022/10/15 09:49:51;;;;;;;47.50;29.13;;;;;;;;;;5067160;28;20422;-82
2022/10/15 09:52:21;;;;;;;48.25;28.10;;;;;;;;;;5082546;28;20456;-82
2022/10/15 09:54:51;;;;;;;45.05;28.55;;;;;;;;;;5085102;28;20430;-81
2022/10/15 09:57:19;;;;;;;44.47;29.13;;;;;;;;;;5082810;28;20909;-82
2022/10/15 09:59:54;;;;;;;50.92;28.85;;;;;;;;;;5083574;28;20426;-82
2022/10/15 10:02:22;;;;;;;47.38;29.25;;;;;;;;;;5084167;28;20425;-82
2022/10/15 10:04:48;;;;;;;47.23;30.23;;;;;;;;;;5064445;28;20911;-81
2022/10/15 10:07:27;;;;;;;48.28;29.40;;;;;;;;;;5083612;28;21384;-81
2022/10/15 10:09:55;;;;;;;45.03;28.70;;;;;;;;;;5085430;27;20428;-82
2022/10/15 10:12:22;;;;;;;45.22;29.45;;;;;;;;;;5081779;28;20430;-82
2022/10/15 10:14:54;;;;;;;49.63;31.00;;;;;;;;;;5065085;28;20417;-82
2022/10/15 10:17:22;;;;;;;43.97;29.63;;;;;;;;;;5080154;28;20440;-82
2022/10/15 10:20:03;;;;;;;45.00;29.83;;;;;;;;;;5078813;27;20414;-82
2022/10/15 10:22:30;;;;;;;42.88;29.17;;;;;;;;;;5084427;28;20477;-81
2022/10/15 10:24:59;;;;;;;46.65;31.02;;;;;;;;;;5080459;28;20429;-81
2022/10/15 10:27:29;;;;;;;43.28;28.58;;;;;;;;;;5080386;28;20423;-81
2022/10/15 10:29:58;;;;;;;44.63;29.58;;;;;;;;;;5080508;27;20425;-82
2022/10/15 10:32:29;;;;;;;43.30;29.92;;;;;;;;;;5079929;28;20453;-82
2022/10/15 10:34:56;;;;;;;44.90;31.48;;;;;;;;;;5082157;27;20421;-82
2022/10/15 10:37:23;;;;;;;46.28;30.67;;;;;;;;;;5079774;28;20431;-82
2022/10/15 10:39:52;;;;;;;47.90;33.28;;;;;;;;;;5082802;27;20423;-82
2022/10/15 10:42:32;;;;;;;47.63;31.77;;;;;;;;;;5080795;28;20422;-82
2022/10/15 10:45:15;;;;;;;50.40;33.23;;;;;;;;;;5083674;27;20421;-82
2022/10/15 10:47:41;;;;;;;46.78;31.88;;;;;;;;;;5083338;28;20431;-82
2022/10/15 10:50:25;;;;;;;50.45;33.97;;;;;;;;;;5085614;27;20426;-82
2022/10/15 10:52:52;;;;;;;48.00;33.70;;;;;;;;;;5082552;28;20803;-80
2022/10/15 10:55:19;;;;;;;51.00;32.70;;;;;;;;;;5082392;27;20414;-81
2022/10/15 10:57:48;;;;;;;47.38;32.60;;;;;;;;;;5080082;28;20434;-82
2022/10/15 11:00:18;;;;;;;48.22;32.67;;;;;;;;;;5080729;28;20426;-80
2022/10/15 11:02:44;;;;;;;44.83;31.65;;;;;;;;;;5081010;28;20815;-82
2022/10/15 11:05:11;;;;;;;48.80;32.60;;;;;;;;;;5080709;27;20817;-80
2022/10/15 11:07:45;;;;;;;47.45;30.63;;;;;;;;;;5062264;28;20438;-80
2022/10/15 11:10:13;;;;;;;44.97;30.73;;;;;;;;;;5080378;28;20940;-82
2022/10/15 11:12:48;;;;;;;52.55;31.85;;;;;;;;;;5096220;28;20799;-82
2022/10/15 11:15:22;;;;;;;46.77;31.80;;;;;;;;;;5076551;27;20435;-81
2022/10/15 11:17:54;;;;;;;49.10;33.53;;;;;;;;;;5080225;28;20458;-83
2022/10/15 11:20:26;;;;;;;50.17;33.27;;;;;;;;;;5081807;28;20524;-81
2022/10/15 11:22:59;;;;;;;49.08;34.95;;;;;;;;;;5064478;28;20914;-81
2022/10/15 11:25:30;;;;;;;51.25;34.60;;;;;;;;;;5081537;28;20435;-81
2022/10/15 11:28:04;;;;;;;49.45;36.33;;;;;;;;;;5082757;28;20430;-80
2022/10/15 11:30:38;;;;;;;51.03;36.65;;;;;;;;;;5081496;27;20427;-81
2022/10/15 11:33:12;;;;;;;48.92;37.20;;;;;;;;;;5079513;28;20426;-81
2022/10/15 11:35:43;;;;;;;50.30;39.05;;;;;;;;;;5081849;28;20425;-80
2022/10/15 11:38:17;;;;;;;53.22;38.90;;;;;;;;;;5082456;28;20433;-80
2022/10/15 11:40:49;;;;;;;55.25;38.65;;;;;;;;;;5080873;28;20424;-81
2022/10/15 11:43:19;;;;;;;54.75;40.85;;;;;;;;;;5081013;28;20422;-81
2022/10/15 11:46:00;;;;;;;56.28;41.47;;;;;;;;;;5079769;28;20439;-81
2022/10/15 11:48:34;;;;;;;52.70;41.10;;;;;;;;;;5076652;28;20431;-81
2022/10/15 11:51:03;;;;;;;52.00;40.85;;;;;;;;;;5078603;28;20426;-81
2022/10/15 11:53:34;;;;;;;56.90;42.35;;;;;;;;;;5078700;28;20456;-83
2022/10/15 11:56:04;;;;;;;58.17;42.42;;;;;;;;;;5080851;28;20427;-82
2022/10/15 11:58:33;;;;;;;50.83;37.92;;;;;;;;;;5077828;28;20406;-82
2022/10/15 12:01:04;;;;;;;47.72;38.60;;;;;;;;;;5080948;28;20436;-82
2022/10/15 12:03:34;;;;;;;53.55;40.70;;;;;;;;;;5079396;28;22985;-82
2022/10/15 12:06:03;;;;;;;50.70;39.13;;;;;;;;;;5078878;28;20852;-82
2022/10/15 12:08:30;;;;;;;44.10;34.88;;;;;;;;;;5081221;28;20414;-82
2022/10/15 12:11:04;;;;;;;42.30;33.60;;;;;;;;;;5078921;28;20427;-82
2022/10/15 12:13:34;;;;;;;45.90;33.55;;;;;;;;;;5080497;28;20396;-83
2022/10/15 12:16:06;;;;;;;39.83;30.58;;;;;;;;;;5078828;28;20432;-83
2022/10/15 12:18:36;;;;;;;43.28;32.13;;;;;;;;;;5081163;28;20892;-83
2022/10/15 12:21:02;;;;;;;41.17;31.83;;;;;;;;;;5082639;28;20422;-83
2022/10/15 12:23:39;;;;;;;38.35;29.42;;;;;;;;;;5079801;28;20425;-82
2022/10/15 12:26:26;;;;;;;36.78;28.38;;;;;;;;;;5080909;28;20429;-83
2022/10/15 12:28:53;;;;;;;32.85;25.60;;;;;;;;;;5079720;28;20438;-82
2022/10/15 12:31:22;;;;;;;34.05;26.40;;;;;;;;;;5075845;28;20938;-82
2022/10/15 12:33:50;;;;;;;32.28;24.38;;;;;;;;;;5081947;28;20418;-83
2022/10/15 12:36:27;;;;;;;31.13;22.45;;;;;;;;;;5077052;28;20429;-83
2022/10/15 12:38:57;;;;;;;29.48;21.05;;;;;;;;;;5081385;28;20425;-82
2022/10/15 12:41:34;;;;;;;29.77;21.33;;;;;;;;;;5079485;28;20924;-83
2022/10/15 12:44:05;;;;;;;28.70;21.67;;;;;;;;;;5081908;28;20423;-82
2022/10/15 12:46:36;;;;;;;28.63;21.38;;;;;;;;;;5080808;28;20455;-83
2022/10/15 12:49:23;;;;;;;26.40;21.33;;;;;;;;;;5075807;28;20838;-82
2022/10/15 12:51:51;;;;;;;26.42;20.05;;;;;;;;;;5078188;28;20435;-83
2022/10/15 12:54:34;;;;;;;27.30;19.45;;;;;;;;;;5078430;28;20428;-82
2022/10/15 12:57:03;;;;;;;27.67;20.80;;;;;;;;;;5076899;28;20431;-83
2022/10/15 12:59:31;;;;;;;30.83;21.83;;;;;;;;;;5079317;28;20432;-82
2022/10/15 13:01:58;;;;;;;29.88;20.60;;;;;;;;;;5078823;28;20455;-83
2022/10/15 13:04:35;;;;;;;28.90;20.93;;;;;;;;;;5079242;28;20416;-83
2022/10/15 13:07:04;;;;;;;29.17;21.13;;;;;;;;;;5078090;28;20433;-82
2022/10/15 13:09:31;;;;;;;31.30;22.50;;;;;;;;;;5079992;28;20417;-83
2022/10/15 13:11:59;;;;;;;31.00;21.97;;;;;;;;;;5079450;28;20939;-83
2022/10/15 13:14:31;;;;;;;31.58;22.23;;;;;;;;;;5080886;28;20416;-83
2022/10/15 13:16:57;;;;;;;29.65;20.92;;;;;;;;;;5076537;28;20435;-82
2022/10/15 13:19:27;;;;;;;29.40;22.27;;;;;;;;;;5077732;28;20431;-82
2022/10/15 13:21:55;;;;;;;30.55;23.02;;;;;;;;;;5083884;28;20458;-83
2022/10/15 13:24:24;;;;;;;30.23;22.10;;;;;;;;;;5083445;28;20415;-83
2022/10/15 13:26:51;;;;;;;31.60;22.40;;;;;;;;;;5082846;28;20468;-83
2022/10/15 13:29:19;;;;;;;29.92;20.63;;;;;;;;;;5082774;28;20419;-83
2022/10/15 13:31:47;;;;;;;31.47;22.27;;;;;;;;;;5083994;28;20426;-83
2022/10/15 13:34:16;;;;;;;28.50;20.77;;;;;;;;;;5083474;28;20766;-84
2022/10/15 13:36:44;;;;;;;32.58;21.70;;;;;;;;;;5083048;28;20425;-83
2022/10/15 13:39:22;;;;;;;32.85;22.13;;;;;;;;;;5098895;28;20933;-83
2022/10/15 13:41:50;;;;;;;30.70;22.67;;;;;;;;;;5085184;28;20450;-83
2022/10/15 13:44:22;;;;;;;34.33;23.85;;;;;;;;;;5082436;28;20926;-83
2022/10/15 13:46:49;;;;;;;32.38;23.85;;;;;;;;;;5083282;28;20598;-83
2022/10/15 13:49:15;;;;;;;31.05;25.00;;;;;;;;;;5080896;28;20410;-82
2022/10/15 13:51:43;;;;;;;36.85;26.25;;;;;;;;;;5088066;28;20493;-82
2022/10/15 13:54:11;;;;;;;36.42;26.90;;;;;;;;;;5080085;28;20428;-82
2022/10/15 13:56:42;;;;;;;37.60;26.80;;;;;;;;;;5082393;28;20473;-83
2022/10/15 13:59:15;;;;;;;34.72;26.98;;;;;;;;;;5081528;28;20424;-82
2022/10/15 14:01:45;;;;;;;34.55;26.85;;;;;;;;;;5082163;28;20430;-82
2022/10/15 14:04:14;;;;;;;37.75;26.88;;;;;;;;;;5082960;28;20411;-83
2022/10/15 14:06:42;;;;;;;32.90;26.50;;;;;;;;;;5084837;28;20435;-82
2022/10/15 14:09:13;;;;;;;30.95;25.70;;;;;;;;;;5083038;28;20508;-83
2022/10/15 14:11:39;;;;;;;34.15;26.02;;;;;;;;;;5082406;28;20435;-82
2022/10/15 14:14:21;;;;;;;35.40;27.30;;;;;;;;;;5081513;28;20423;-83
2022/10/15 14:16:49;;;;;;;32.50;26.43;;;;;;;;;;5084241;28;20431;-83
2022/10/15 14:19:17;;;;;;;37.10;28.02;;;;;;;;;;5085340;28;20415;-82
2022/10/15 14:21:47;;;;;;;37.63;27.30;;;;;;;;;;5079995;28;20518;-83
2022/10/15 14:24:15;;;;;;;35.60;28.80;;;;;;;;;;5082365;28;20913;-83